Time;durP1;ratioP1;P1;durP2;ratioP2;P2;SDS_P1;SDS_P2;PMS_P1;PMS_P2;Temp;Humidity;BMP_temperature;BMP_pressure;BME280_temperature;BME280_humidity;BME280_pressure;Samples;Min_cycle;Max_cycle;Signal;HPM_P1;HPM_P2
2023/07/13 00:01:14;;;;;;;13.02;8.73;;;;;;;25.85;72.44;100121.44;5087476;28;21147;-20
2023/07/13 00:03:40;;;;;;;12.83;8.63;;;;;;;25.84;73.02;100136.19;5090969;28;20028;-20
2023/07/13 00:06:07;;;;;;;12.53;8.90;;;;;;;26.01;71.98;100119.88;5105352;28;20553;-20
2023/07/13 00:08:33;;;;;;;28.40;22.20;;;;;;;26.04;72.05;100126.59;5105097;28;20035;-22
2023/07/13 00:11:00;;;;;;;14.40;10.15;;;;;;;25.75;73.65;100128.00;5105538;28;20404;-21
2023/07/13 00:13:25;;;;;;;12.85;8.38;;;;;;;25.72;73.88;100122.38;5105183;28;20069;-22
2023/07/13 00:15:51;;;;;;;11.70;9.15;;;;;;;25.88;73.04;100114.53;5105470;28;20065;-19
2023/07/13 00:18:16;;;;;;;11.27;8.73;;;;;;;25.62;74.24;100118.84;5104966;28;20165;-20
2023/07/13 00:20:44;;;;;;;12.10;9.05;;;;;;;25.45;75.21;100125.03;5105336;28;20722;-19
2023/07/13 00:23:09;;;;;;;;;;;;;;;25.20;75.85;100107.44;5105527;27;20051;-20
2023/07/13 00:25:35;;;;;;;14.27;10.00;;;;;;;25.33;76.32;100121.31;5105127;28;19957;-20
2023/07/13 00:28:00;;;;;;;12.70;9.35;;;;;;;25.32;75.80;100104.16;5104571;28;20289;-20
2023/07/13 00:30:26;;;;;;;14.27;9.52;;;;;;;25.53;75.33;100120.72;5104938;28;20026;-19
2023/07/13 00:32:51;;;;;;;13.98;9.30;;;;;;;25.66;74.58;100119.81;5105193;28;20042;-20
2023/07/13 00:35:17;;;;;;;13.55;10.10;;;;;;;25.79;73.79;100117.25;5105099;28;20123;-20
2023/07/13 00:37:43;;;;;;;12.25;9.05;;;;;;;26.03;71.88;100109.41;5104705;28;20667;-20
2023/07/13 00:40:12;;;;;;;13.23;9.98;;;;;;;25.28;75.24;100097.72;5104810;28;20040;-20
2023/07/13 00:42:41;;;;;;;12.20;9.88;;;;;;;25.08;76.95;100114.63;5105270;28;20114;-19
2023/07/13 00:45:12;;;;;;;13.48;9.70;;;;;;;24.98;77.92;100116.50;5098334;28;20033;-18
2023/07/13 00:47:40;;;;;;;14.13;10.30;;;;;;;25.09;77.13;100106.13;5089183;28;20121;-20
2023/07/13 00:50:11;;;;;;;11.30;10.07;;;;;;;25.30;76.20;100105.59;5084363;28;20029;-20
2023/07/13 00:52:44;;;;;;;11.40;9.98;;;;;;;25.33;76.01;100100.28;5084053;28;20024;-21
2023/07/13 00:55:14;;;;;;;13.90;11.13;;;;;;;25.31;76.28;100099.00;5084270;28;20028;-18
2023/07/13 00:57:43;;;;;;;15.80;11.18;;;;;;;25.34;76.15;100112.03;5084180;28;20056;-20
2023/07/13 01:00:12;;;;;;;13.73;10.63;;;;;;;25.39;75.93;100103.66;5084299;28;20025;-19
2023/07/13 01:02:44;;;;;;;13.32;10.65;;;;;;;25.30;76.38;100102.84;5088769;28;20562;-19
2023/07/13 01:05:14;;;;;;;14.25;11.10;;;;;;;25.59;75.01;100103.06;5093309;28;20637;-18
2023/07/13 01:07:41;;;;;;;13.02;10.60;;;;;;;25.29;76.35;100109.44;5084148;28;20054;-19
2023/07/13 01:10:07;;;;;;;14.50;10.35;;;;;;;25.18;76.53;100104.22;5084139;28;20027;-19
2023/07/13 01:12:33;;;;;;;14.07;11.23;;;;;;;24.88;78.62;100108.59;5084283;28;20032;-18
2023/07/13 01:15:02;;;;;;;16.25;11.23;;;;;;;25.20;77.24;100096.53;5084109;28;20482;-19
2023/07/13 01:17:33;;;;;;;12.35;9.90;;;;;;;24.64;76.83;100106.22;5083964;28;20020;-20
2023/07/13 01:19:58;;;;;;;13.57;10.77;;;;;;;24.70;77.48;100096.78;5084210;28;20032;-19
2023/07/13 01:22:29;;;;;;;16.67;11.00;;;;;;;24.66;76.13;100077.53;5090661;28;20390;-19
2023/07/13 01:24:54;;;;;;;15.60;11.60;;;;;;;24.73;78.17;100092.66;5105076;28;20024;-20
2023/07/13 01:27:26;;;;;;;23.23;12.20;;;;;;;24.66;76.99;100087.63;5104499;28;20019;-20
2023/07/13 01:30:03;;;;;;;12.52;11.07;;;;;;;24.86;77.10;100087.06;5104692;28;20077;-20
2023/07/13 01:32:31;;;;;;;;;;;;;;;24.77;76.47;100088.97;5104819;28;20058;-19
2023/07/13 01:34:56;;;;;;;15.77;11.98;;;;;;;24.64;77.71;100089.84;5104272;28;20081;-19
2023/07/13 01:37:28;;;;;;;14.93;11.40;;;;;;;24.50;78.42;100083.69;5108262;28;20142;-19
2023/07/13 01:39:53;;;;;;;14.75;12.80;;;;;;;24.47;79.04;100085.88;5108594;28;20023;-18
2023/07/13 01:42:21;;;;;;;17.50;12.35;;;;;;;24.70;78.53;100102.22;5106347;27;20016;-18
2023/07/13 01:44:46;;;;;;;15.45;12.40;;;;;;;24.83;77.16;100098.63;5091999;28;20781;-18
2023/07/13 01:47:12;;;;;;;17.20;13.05;;;;;;;24.81;77.65;100100.88;5101659;28;20035;-19
2023/07/13 01:49:37;;;;;;;18.63;12.07;;;;;;;24.82;77.34;100104.38;5107795;28;20084;-19
2023/07/13 01:52:03;;;;;;;17.08;12.43;;;;;;;24.82;76.64;100101.66;5108097;28;20107;-18
2023/07/13 01:54:31;;;;;;;15.32;12.70;;;;;;;25.02;76.16;100111.22;5107599;27;20706;-19
2023/07/13 01:56:57;;;;;;;16.67;12.77;;;;;;;24.82;76.92;100107.13;5107774;28;20019;-20
2023/07/13 01:59:22;;;;;;;17.08;12.88;;;;;;;24.89;77.06;100110.22;5107470;28;20050;-19
2023/07/13 02:01:50;;;;;;;15.85;12.38;;;;;;;24.57;78.56;100111.31;5106244;28;20028;-20
2023/07/13 02:04:16;;;;;;;15.35;12.10;;;;;;;24.34;79.35;100105.06;5101197;27;20032;-18
2023/07/13 02:06:41;;;;;;;15.88;12.77;;;;;;;24.65;78.02;100116.81;5107274;28;20404;-19
2023/07/13 02:09:09;;;;;;;18.85;13.23;;;;;;;24.68;78.24;100118.09;5107796;28;20031;-19
2023/07/13 02:11:35;;;;;;;21.67;12.90;;;;;;;24.80;77.32;100109.34;5107445;28;20029;-19
2023/07/13 02:14:01;;;;;;;16.70;12.75;;;;;;;24.92;76.97;100116.97;5107340;28;20032;-19
2023/07/13 02:16:27;;;;;;;19.65;12.30;;;;;;;24.93;76.75;100110.38;5107360;28;20050;-20
2023/07/13 02:18:53;;;;;;;17.38;13.00;;;;;;;24.74;78.38;100122.31;5107699;28;20076;-19
2023/07/13 02:21:18;;;;;;;15.40;12.73;;;;;;;24.56;78.78;100106.97;5107449;28;20059;-18
2023/07/13 02:23:44;;;;;;;16.85;13.20;;;;;;;24.46;79.12;100116.19;5107356;28;20797;-19
2023/07/13 02:26:10;;;;;;;17.33;13.05;;;;;;;24.46;79.05;100117.00;5107536;28;20149;-18
2023/07/13 02:28:35;;;;;;;19.55;12.80;;;;;;;24.54;78.78;100115.47;5107071;28;20434;-19
2023/07/13 02:31:13;;;;;;;18.23;12.63;;;;;;;24.36;78.96;100117.25;5107752;28;20036;-19
2023/07/13 02:33:41;;;;;;;18.15;12.13;;;;;;;24.24;80.65;100119.72;5107204;28;20102;-20
2023/07/13 02:36:08;;;;;;;20.13;13.02;;;;;;;24.43;78.62;100123.06;5106880;28;20559;-21
2023/07/13 02:38:36;;;;;;;18.02;13.05;;;;;;;24.54;77.79;100122.81;5107189;28;20042;-19
2023/07/13 02:41:07;;;;;;;17.05;12.20;;;;;;;24.18;79.86;100127.22;5106957;28;20024;-19
2023/07/13 02:43:38;;;;;;;34.35;15.25;;;;;;;24.41;78.46;100130.72;5106769;28;20047;-20
2023/07/13 02:46:09;;;;;;;26.60;14.57;;;;;;;24.24;78.46;100136.06;5106545;28;20027;-19
2023/07/13 02:48:36;;;;;;;24.10;15.07;;;;;;;23.76;80.31;100133.84;5106484;27;20127;-19
2023/07/13 02:51:02;;;;;;;22.73;15.88;;;;;;;23.43;82.82;100132.06;5106802;28;20012;-19
2023/07/13 02:53:30;;;;;;;18.05;13.98;;;;;;;23.14;83.72;100126.94;5106525;28;20050;-24
2023/07/13 02:55:56;;;;;;;20.13;13.90;;;;;;;22.92;84.79;100130.28;5107131;28;20030;-19
2023/07/13 02:58:21;;;;;;;17.17;13.48;;;;;;;23.20;83.12;100131.16;5106278;28;20044;-18
2023/07/13 03:00:49;;;;;;;17.67;12.60;;;;;;;23.23;82.62;100137.91;5106398;27;20031;-18
2023/07/13 03:03:16;;;;;;;16.30;13.20;;;;;;;23.39;82.41;100136.50;5106272;28;20692;-19
2023/07/13 03:05:44;;;;;;;15.65;12.45;;;;;;;23.38;83.00;100143.06;5106351;27;20159;-19
2023/07/13 03:08:10;;;;;;;17.50;12.65;;;;;;;23.71;81.98;100140.22;5106274;27;20024;-19
2023/07/13 03:10:36;;;;;;;16.98;13.60;;;;;;;23.54;82.66;100140.84;5106294;28;20739;-19
2023/07/13 03:13:02;;;;;;;15.80;11.30;;;;;;;23.06;85.46;100135.78;5105983;28;20030;-19
2023/07/13 03:15:27;;;;;;;16.65;12.00;;;;;;;22.74;88.68;100136.59;5106261;28;20027;-19
2023/07/13 03:17:53;;;;;;;15.93;12.27;;;;;;;22.66;87.99;100138.91;5106444;28;20516;-19
2023/07/13 03:20:18;;;;;;;21.02;13.00;;;;;;;23.05;85.71;100139.63;5105856;28;20879;-19
2023/07/13 03:22:45;;;;;;;17.90;12.80;;;;;;;23.27;84.69;100137.03;5106227;28;20057;-19
2023/07/13 03:25:11;;;;;;;16.80;12.50;;;;;;;23.29;84.23;100133.19;5106102;28;20080;-19
2023/07/13 03:27:39;;;;;;;17.98;13.13;;;;;;;22.89;85.81;100135.53;5106062;28;20031;-19
2023/07/13 03:30:05;;;;;;;14.60;12.10;;;;;;;22.75;87.75;100140.94;5105785;28;20499;-20
2023/07/13 03:32:41;;;;;;;;;;;;;;;;;;;;;
2023/07/13 03:35:08;;;;;;;21.23;13.48;;;;;;;22.92;87.63;100151.25;5102782;28;20044;-19
2023/07/13 03:37:34;;;;;;;18.10;14.48;;;;;;;22.81;88.71;100148.72;5105611;28;20113;-18
2023/07/13 03:39:59;;;;;;;21.77;14.18;;;;;;;;;;5105837;28;20027;-20
2023/07/13 03:42:25;;;;;;;17.73;14.68;;;;;;;22.49;91.33;100148.72;5105796;28;20495;-19
2023/07/13 03:44:52;;;;;;;19.55;14.70;;;;;;;22.71;90.27;100146.16;5105653;28;20027;-19
2023/07/13 03:47:20;;;;;;;18.45;14.10;;;;;;;22.81;89.99;100151.44;5105709;28;20892;-19
2023/07/13 03:49:46;;;;;;;19.90;14.20;;;;;;;22.76;90.02;100146.09;5105489;28;20310;-18
2023/07/13 03:52:11;;;;;;;17.40;14.90;;;;;;;22.76;89.99;100142.53;5105385;28;20730;-19
2023/07/13 03:54:37;;;;;;;15.38;13.30;;;;;;;22.73;90.24;100140.44;5105672;28;20024;-18
2023/07/13 03:57:02;;;;;;;16.30;13.20;;;;;;;22.70;92.17;100143.75;5104477;28;20765;-19
2023/07/13 03:59:28;;;;;;;18.20;13.45;;;;;;;23.04;89.87;100132.56;5105699;28;20551;-19
2023/07/13 04:01:55;;;;;;;18.20;14.20;;;;;;;23.15;89.29;100155.75;5105226;28;20087;-19
2023/07/13 04:04:20;;;;;;;26.27;15.23;;;;;;;23.40;88.03;100150.94;5105122;28;20027;-19
2023/07/13 04:06:46;;;;;;;23.15;14.43;;;;;;;23.31;89.40;100147.28;5105163;28;20272;-19
2023/07/13 04:09:11;;;;;;;17.02;14.55;;;;;;;23.57;87.62;100150.31;5104920;28;20477;-18
2023/07/13 04:11:37;;;;;;;18.70;13.85;;;;;;;23.53;88.26;100144.66;5105315;28;20099;-19
2023/07/13 04:14:02;;;;;;;16.90;14.10;;;;;;;23.38;88.97;100148.50;5105013;28;20028;-18
2023/07/13 04:16:28;;;;;;;21.40;13.93;;;;;;;23.41;89.11;100142.44;5105389;28;20043;-18
2023/07/13 04:18:59;;;;;;;21.92;13.15;;;;;;;23.50;89.33;100133.56;5104671;28;20024;-19
2023/07/13 04:21:25;;;;;;;18.95;14.75;;;;;;;23.50;89.81;100136.28;5104941;27;20072;-19
2023/07/13 04:23:51;;;;;;;17.80;15.02;;;;;;;24.13;85.91;100126.50;5104781;28;20028;-19
2023/07/13 04:26:16;;;;;;;20.73;15.63;;;;;;;24.30;84.43;100139.50;5104956;28;20026;-19
2023/07/13 04:28:42;;;;;;;19.17;15.15;;;;;;;24.57;82.84;100147.56;5104861;28;20074;-18
2023/07/13 04:31:07;;;;;;;28.50;17.48;;;;;;;24.77;81.60;100148.97;5104813;28;20100;-19
2023/07/13 04:33:33;;;;;;;34.30;17.33;;;;;;;24.92;80.82;100149.69;5104581;28;20107;-19
2023/07/13 04:36:02;;;;;;;18.90;14.73;;;;;;;25.15;77.66;100148.53;5104946;28;20465;-19
2023/07/13 04:38:30;;;;;;;17.85;14.10;;;;;;;24.97;77.90;100146.84;5104620;28;20108;-20
2023/07/13 04:40:58;;;;;;;20.23;15.50;;;;;;;25.06;77.15;100144.94;5104765;28;20019;-19
2023/07/13 04:43:24;;;;;;;;;;;;;;;25.02;78.04;100154.88;5105154;28;20423;-19
2023/07/13 04:45:51;;;;;;;24.60;17.08;;;;;;;25.23;77.86;100153.25;5104349;28;20380;-18
2023/07/13 04:48:19;;;;;;;21.05;16.42;;;;;;;25.28;77.67;100163.22;5104882;28;20038;-19
2023/07/13 04:50:45;;;;;;;18.05;15.13;;;;;;;25.43;76.98;100172.91;5104622;28;20473;-19
2023/07/13 04:53:11;;;;;;;27.88;16.17;;;;;;;25.37;77.19;100169.50;5104543;28;20032;-18
2023/07/13 04:55:37;;;;;;;24.85;15.73;;;;;;;25.41;77.84;100166.94;5104600;28;20064;-19
2023/07/13 04:58:03;;;;;;;19.90;15.25;;;;;;;25.33;77.53;100160.34;5102005;28;20047;-19
2023/07/13 05:00:29;;;;;;;18.25;14.52;;;;;;;25.64;76.57;100154.81;5104561;28;20030;-19
2023/07/13 05:03:00;;;;;;;19.52;15.07;;;;;;;25.66;75.81;100152.56;5104288;28;20124;-22
2023/07/13 05:05:26;;;;;;;20.00;15.30;;;;;;;25.84;74.40;100160.78;5104275;28;20027;-20
2023/07/13 05:07:53;;;;;;;18.73;14.90;;;;;;;25.73;75.59;100164.97;5104163;28;20012;-20
2023/07/13 05:10:19;;;;;;;21.77;16.17;;;;;;;25.98;75.37;100164.22;5106908;28;20036;-19
2023/07/13 05:12:45;;;;;;;26.20;16.92;;;;;;;26.11;73.71;100156.19;5108895;28;20035;-19
2023/07/13 05:15:11;;;;;;;19.63;14.32;;;;;;;26.22;72.27;100168.41;5108229;28;20023;-19
2023/07/13 05:17:40;;;;;;;19.90;14.68;;;;;;;26.36;72.88;100171.00;5108180;28;20034;-19
2023/07/13 05:20:07;;;;;;;17.75;15.20;;;;;;;26.53;71.51;100153.75;5108410;28;20035;-21
2023/07/13 05:22:34;;;;;;;20.67;15.50;;;;;;;26.64;70.54;100163.25;5108382;28;20020;-19
2023/07/13 05:25:04;;;;;;;21.13;15.77;;;;;;;26.71;70.16;100177.25;5108531;28;20698;-19
2023/07/13 05:27:30;;;;;;;20.48;15.88;;;;;;;26.76;70.46;100176.28;5108438;28;20023;-19
2023/07/13 05:29:56;;;;;;;21.13;14.82;;;;;;;27.00;69.38;100165.59;5107872;28;20032;-19
2023/07/13 05:32:24;;;;;;;18.80;14.20;;;;;;;27.08;68.59;100166.69;5107983;28;20026;-19
2023/07/13 05:34:49;;;;;;;18.40;15.40;;;;;;;27.38;68.06;100178.53;5107902;28;20032;-19
2023/07/13 05:37:15;;;;;;;21.92;15.18;;;;;;;27.42;66.94;100175.91;5107892;28;20035;-20
2023/07/13 05:39:40;;;;;;;18.17;14.63;;;;;;;27.49;67.50;100176.22;5107898;28;20742;-19
2023/07/13 05:42:06;;;;;;;24.38;15.13;;;;;;;27.72;67.48;100184.13;5107778;28;20578;-18
2023/07/13 05:44:32;;;;;;;19.45;14.38;;;;;;;27.71;65.86;100188.03;5108025;28;20024;-23
2023/07/13 05:46:57;;;;;;;26.52;14.63;;;;;;;27.73;66.48;100186.56;5107581;28;20028;-19
2023/07/13 05:49:23;;;;;;;22.98;14.18;;;;;;;27.82;64.96;100178.28;5107651;28;20046;-21
2023/07/13 05:51:48;;;;;;;18.05;12.32;;;;;;;28.16;63.26;100182.75;5107381;28;20102;-19
2023/07/13 05:54:14;;;;;;;17.98;14.32;;;;;;;28.15;65.56;100180.34;5107571;28;20106;-19
2023/07/13 05:56:47;;;;;;;18.70;13.98;;;;;;;27.88;66.87;100187.94;5103990;28;20561;-18
2023/07/13 05:59:12;;;;;;;17.55;13.45;;;;;;;27.88;64.90;100179.72;5107294;28;20135;-20
2023/07/13 06:01:38;;;;;;;18.50;13.48;;;;;;;28.13;63.51;100164.19;5107227;28;20142;-24
2023/07/13 06:04:04;;;;;;;16.45;12.68;;;;;;;28.25;62.21;100185.41;5107597;28;20047;-19
2023/07/13 06:06:29;;;;;;;16.48;12.65;;;;;;;28.26;60.66;100184.28;5107542;28;20043;-19
2023/07/13 06:08:54;;;;;;;15.82;12.38;;;;;;;28.35;61.53;100179.50;5107267;28;20062;-20
2023/07/13 06:11:25;;;;;;;15.10;12.90;;;;;;;28.40;60.62;100179.31;5107139;28;20027;-19
2023/07/13 06:13:53;;;;;;;14.43;12.52;;;;;;;28.48;59.46;100177.63;5107002;28;20057;-22
2023/07/13 06:16:19;;;;;;;15.63;12.20;;;;;;;28.54;58.29;100176.31;5105437;28;20092;-20
2023/07/13 06:18:45;;;;;;;16.05;12.98;;;;;;;28.60;59.85;100179.63;5106679;28;20063;-20
2023/07/13 06:21:22;;;;;;;17.10;12.60;;;;;;;28.97;57.90;100182.50;5106332;28;20527;-20
2023/07/13 06:23:50;;;;;;;14.45;12.38;;;;;;;28.93;57.48;100168.66;5107252;28;20054;-20
2023/07/13 06:26:16;;;;;;;;;;;;;;;29.18;58.53;100171.47;5107795;28;20070;-22
2023/07/13 06:28:43;;;;;;;16.13;13.43;;;;;;;29.22;57.59;100162.19;5107570;28;19959;-20
2023/07/13 06:31:10;;;;;;;16.88;13.15;;;;;;;29.12;58.25;100167.34;5107081;28;20032;-20
2023/07/13 06:33:37;;;;;;;18.05;12.68;;;;;;;29.27;55.96;100165.88;5107189;28;20423;-20
2023/07/13 06:36:04;;;;;;;15.00;12.52;;;;;;;29.29;57.16;100171.81;5106926;28;20036;-21
2023/07/13 06:38:29;;;;;;;21.92;12.95;;;;;;;29.48;58.11;100163.00;5107323;28;20027;-19
2023/07/13 06:40:57;;;;;;;17.65;12.75;;;;;;;29.74;54.31;100168.16;5107002;28;20035;-20
2023/07/13 06:43:24;;;;;;;16.88;12.38;;;;;;;29.79;55.18;100165.16;5106757;28;20652;-20
2023/07/13 06:45:50;;;;;;;14.90;11.20;;;;;;;29.84;53.43;100171.22;5106861;28;20578;-20
2023/07/13 06:48:18;;;;;;;14.65;11.85;;;;;;;29.45;52.94;100142.50;5106431;28;20424;-18
2023/07/13 06:50:45;;;;;;;14.20;11.95;;;;;;;29.95;53.87;100166.03;5106742;28;20020;-18
2023/07/13 06:53:12;;;;;;;13.88;11.68;;;;;;;29.89;53.84;100161.94;5106646;28;20049;-19
2023/07/13 06:55:38;;;;;;;16.00;11.65;;;;;;;30.15;52.90;100158.78;5106210;28;20038;-17
2023/07/13 06:58:03;;;;;;;18.05;11.50;;;;;;;30.41;50.27;100166.63;5106115;28;20043;-21
2023/07/13 07:00:29;;;;;;;16.52;11.60;;;;;;;30.43;49.79;100158.81;5107020;28;20059;-18
2023/07/13 07:02:54;;;;;;;15.32;12.55;;;;;;;30.62;49.69;100160.09;5106218;28;20016;-18
2023/07/13 07:05:21;;;;;;;17.42;11.05;;;;;;;30.62;50.46;100140.81;5106302;28;20023;-19
2023/07/13 07:07:50;;;;;;;14.32;11.48;;;;;;;30.83;49.24;100149.66;5106152;28;20057;-18
2023/07/13 07:10:16;;;;;;;16.75;10.68;;;;;;;30.89;48.95;100147.44;5106542;27;20020;-18
2023/07/13 07:12:44;;;;;;;14.40;10.45;;;;;;;31.21;48.04;100164.78;5106161;27;20428;-19
2023/07/13 07:15:09;;;;;;;16.17;11.65;;;;;;;31.40;48.84;100155.78;5106243;28;20516;-18
2023/07/13 07:17:35;;;;;;;13.32;10.80;;;;;;;31.37;47.44;100155.72;5100629;28;20065;-18
2023/07/13 07:20:00;;;;;;;15.95;11.05;;;;;;;31.48;48.67;100151.28;5106177;28;20508;-18
2023/07/13 07:22:29;;;;;;;13.10;10.70;;;;;;;31.85;46.11;100159.19;5106008;28;20030;-23
2023/07/13 07:24:56;;;;;;;12.73;10.43;;;;;;;31.74;46.79;100155.41;5106154;28;20035;-18
2023/07/13 07:27:21;;;;;;;14.20;10.95;;;;;;;31.78;47.26;100154.31;5105792;28;20039;-18
2023/07/13 07:29:47;;;;;;;12.30;10.80;;;;;;;31.98;45.88;100157.91;5105577;28;20027;-18
2023/07/13 07:32:12;;;;;;;13.90;11.18;;;;;;;32.03;47.06;100149.34;5105157;28;20019;-17
2023/07/13 07:34:45;;;;;;;12.98;10.27;;;;;;;32.24;45.41;100153.72;5105927;28;20015;-18
2023/07/13 07:37:14;;;;;;;13.05;9.27;;;;;;;31.89;43.81;100149.03;5105782;28;20034;-20
2023/07/13 07:39:39;;;;;;;11.63;9.50;;;;;;;31.88;43.82;100150.22;5105554;28;20032;-18
2023/07/13 07:42:09;;;;;;;14.52;9.10;;;;;;;32.08;42.82;100153.00;5105960;28;20028;-19
2023/07/13 07:44:39;;;;;;;13.15;9.25;;;;;;;31.87;42.27;100156.88;5105530;28;20019;-19
2023/07/13 07:47:05;;;;;;;12.85;9.13;;;;;;;32.29;41.58;100161.72;5104499;28;20016;-19
2023/07/13 07:49:33;;;;;;;12.30;9.50;;;;;;;32.45;41.81;100153.34;5105376;28;20046;-17
2023/07/13 07:52:02;;;;;;;12.35;8.10;;;;;;;32.60;40.81;100154.44;5103919;28;20023;-18
2023/07/13 07:54:28;;;;;;;10.98;8.88;;;;;;;32.72;39.15;100162.56;5104677;28;20110;-18
2023/07/13 07:56:53;;;;;;;10.38;8.82;;;;;;;32.43;40.34;100150.97;5104899;28;20126;-19
2023/07/13 07:59:21;;;;;;;12.50;9.23;;;;;;;32.67;39.81;100154.56;5100394;28;20050;-19
2023/07/13 08:01:50;;;;;;;12.35;8.75;;;;;;;32.67;39.85;100149.03;5103625;28;20534;-18
2023/07/13 08:04:16;;;;;;;14.57;10.15;;;;;;;32.97;40.41;100135.38;5104261;28;20053;-18
2023/07/13 08:06:41;;;;;;;16.25;10.38;;;;;;;33.03;40.44;100144.94;5104541;28;20024;-19
2023/07/13 08:09:10;;;;;;;14.95;9.50;;;;;;;33.02;40.15;100137.03;5104745;28;20031;-18
2023/07/13 08:11:38;;;;;;;11.90;9.43;;;;;;;33.02;39.51;100145.31;5104073;28;20030;-19
2023/07/13 08:14:03;;;;;;;12.23;9.85;;;;;;;33.14;39.25;100147.94;5104818;28;20435;-19
2023/07/13 08:16:32;;;;;;;14.05;10.60;;;;;;;33.09;39.54;100142.69;5104606;28;20486;-20
2023/07/13 08:18:58;;;;;;;13.20;10.32;;;;;;;33.03;40.02;100127.56;5104366;28;20023;-19
2023/07/13 08:21:23;;;;;;;12.68;10.25;;;;;;;33.42;39.41;100130.19;5104723;28;20943;-20
2023/07/13 08:23:49;;;;;;;14.68;10.70;;;;;;;33.55;38.77;100142.63;5103392;28;20020;-20
2023/07/13 08:26:14;;;;;;;12.52;11.00;;;;;;;33.66;38.28;100142.00;5104122;28;20083;-20
2023/07/13 08:28:43;;;;;;;14.60;10.68;;;;;;;33.98;37.56;100143.22;5104079;28;20027;-20
2023/07/13 08:31:10;;;;;;;13.15;10.13;;;;;;;33.88;37.72;100132.81;5103671;28;20035;-19
2023/07/13 08:33:38;;;;;;;12.45;10.13;;;;;;;33.86;37.47;100139.88;5104342;28;20011;-20
2023/07/13 08:36:05;;;;;;;14.50;10.73;;;;;;;33.90;38.30;100137.97;5104494;28;20119;-19
2023/07/13 08:38:30;;;;;;;12.80;10.50;;;;;;;34.18;38.06;100137.53;5104853;28;20070;-19
2023/07/13 08:40:56;;;;;;;14.55;9.98;;;;;;;34.33;35.98;100136.53;5104863;28;20051;-19
2023/07/13 08:43:28;;;;;;;15.60;10.70;;;;;;;34.10;37.52;100130.31;5104858;28;20039;-19
2023/07/13 08:46:02;;;;;;;15.95;11.27;;;;;;;34.36;36.93;100130.22;5104897;28;20035;-19
2023/07/13 08:48:51;;;;;;;14.95;11.00;;;;;;;34.67;36.10;100133.72;5104567;28;20114;-19
2023/07/13 08:51:40;;;;;;;13.13;11.13;;;;;;;34.69;36.54;100136.91;5105322;28;20164;-18
2023/07/13 08:54:31;;;;;;;15.73;10.82;;;;;;;34.65;36.51;100141.63;5103661;28;20032;-22
2023/07/13 08:56:58;;;;;;;13.13;10.90;;;;;;;34.88;38.13;100140.66;5103488;28;20104;-19
2023/07/13 08:59:27;;;;;;;15.65;11.10;;;;;;;35.13;36.43;100136.13;5104496;28;20043;-19
2023/07/13 09:02:22;;;;;;;13.70;11.05;;;;;;;35.32;35.05;100131.53;5104701;28;20065;-19
2023/07/13 09:04:53;;;;;;;13.32;9.88;;;;;;;35.13;34.88;100111.16;5104333;28;20119;-21
2023/07/13 09:07:57;;;;;;;12.85;10.05;;;;;;;35.30;35.63;100120.81;5103616;28;20062;-20
2023/07/13 09:10:30;;;;;;;15.40;11.38;;;;;;;35.32;35.57;100123.22;5040527;28;20468;-19
2023/07/13 09:13:01;;;;;;;13.00;10.18;;;;;;;35.44;33.66;100119.31;5095165;28;20047;-20
2023/07/13 09:15:37;;;;;;;14.68;11.15;;;;;;;35.28;36.04;100111.31;5104017;28;20032;-21
2023/07/13 09:18:18;;;;;;;12.40;10.43;;;;;;;35.63;36.20;100099.59;5084541;28;20056;-19
2023/07/13 09:20:59;;;;;;;12.75;11.25;;;;;;;35.95;35.75;100105.31;5089197;28;20074;-20
2023/07/13 09:23:29;;;;;;;12.77;10.80;;;;;;;36.11;34.37;100104.19;5102945;28;20039;-20
2023/07/13 09:26:02;;;;;;;13.63;9.75;;;;;;;36.19;33.00;100112.19;5100721;28;20020;-20
2023/07/13 09:28:36;;;;;;;11.20;9.43;;;;;;;36.28;32.31;100095.13;5103871;28;20045;-18
2023/07/13 09:31:23;;;;;;;15.57;9.73;;;;;;;36.33;33.27;100102.28;5101309;28;20024;-18
2023/07/13 09:33:50;;;;;;;12.32;9.43;;;;;;;36.35;32.92;100084.06;5104607;28;20076;-20
2023/07/13 09:36:29;;;;;;;12.55;9.60;;;;;;;36.36;32.14;100098.72;5103953;28;20073;-21
2023/07/13 09:39:21;;;;;;;11.07;9.05;;;;;;;36.79;31.93;100084.91;5104353;28;20496;-17
2023/07/13 09:41:57;;;;;;;11.75;8.93;;;;;;;36.72;31.36;100068.22;5104044;28;20206;-18
2023/07/13 09:44:37;;;;;;;12.75;9.98;;;;;;;36.82;32.32;100072.19;5103921;28;20026;-19
2023/07/13 09:47:03;;;;;;;15.73;10.32;;;;;;;36.99;31.57;100066.63;5104156;28;20031;-19
2023/07/13 09:49:34;;;;;;;10.33;8.93;;;;;;;37.22;29.64;100068.19;5103765;28;20026;-20
2023/07/13 09:52:03;;;;;;;12.48;8.90;;;;;;;37.64;30.77;100065.69;5104077;28;20507;-19
2023/07/13 09:54:49;;;;;;;12.27;8.27;;;;;;;37.72;30.02;100058.91;5104030;28;20026;-19
2023/07/13 09:57:23;;;;;;;11.27;7.40;;;;;;;37.93;28.40;100056.03;5108215;28;20061;-21
2023/07/13 09:59:56;;;;;;;10.65;8.30;;;;;;;37.88;27.96;100053.66;5105791;28;20039;-19
2023/07/13 10:02:32;;;;;;;8.27;7.30;;;;;;;37.91;26.68;100043.72;5107680;28;20031;-21
2023/07/13 10:05:03;;;;;;;8.67;6.87;;;;;;;37.85;25.98;100035.00;5107796;28;20136;-19
2023/07/13 10:07:30;;;;;;;10.80;6.68;;;;;;;38.06;27.00;100041.66;5107442;28;20105;-20
2023/07/13 10:09:57;;;;;;;10.93;6.95;;;;;;;37.93;26.11;100033.75;5105607;28;20062;-19
2023/07/13 10:12:29;;;;;;;10.95;6.50;;;;;;;38.14;25.64;100037.63;5107405;28;20036;-19
2023/07/13 10:14:59;;;;;;;9.82;6.72;;;;;;;38.33;26.59;100023.19;5108108;28;20100;-19
2023/07/13 10:17:35;;;;;;;8.63;6.55;;;;;;;38.50;24.31;100026.25;5107400;28;20114;-19
2023/07/13 10:20:04;;;;;;;9.07;6.43;;;;;;;38.39;25.16;100018.75;5107353;28;20553;-20
2023/07/13 10:22:42;;;;;;;9.60;6.20;;;;;;;38.65;25.95;100005.41;5107623;28;20419;-19
2023/07/13 10:25:22;;;;;;;10.25;6.38;;;;;;;38.93;25.15;100014.72;5107572;28;20019;-21
2023/07/13 10:27:54;;;;;;;10.15;6.00;;;;;;;39.30;24.45;100007.56;5107274;28;20416;-19
2023/07/13 10:30:22;;;;;;;6.85;5.47;;;;;;;39.20;23.65;100009.25;5107326;28;20084;-19
2023/07/13 10:32:50;;;;;;;9.10;5.38;;;;;;;39.41;22.65;100013.81;5107346;28;20032;-19
2023/07/13 10:35:18;;;;;;;8.63;6.13;;;;;;;39.53;24.12;100012.47;5107594;28;20046;-20
2023/07/13 10:37:57;;;;;;;8.38;6.07;;;;;;;39.65;22.91;100013.91;5107067;28;20490;-20
2023/07/13 10:40:29;;;;;;;7.03;5.43;;;;;;;39.91;22.56;100013.19;5104864;28;20522;-19
2023/07/13 10:43:01;;;;;;;9.48;5.68;;;;;;;40.11;23.39;100006.88;5105429;28;20114;-19
2023/07/13 10:45:30;;;;;;;8.35;5.28;;;;;;;40.36;21.08;100012.13;5106388;28;20027;-19
2023/07/13 10:47:56;;;;;;;8.25;5.88;;;;;;;40.39;20.69;100016.06;5106563;28;20023;-20
2023/07/13 10:50:25;;;;;;;8.27;5.70;;;;;;;40.47;22.16;100006.34;5106685;27;20023;-20
2023/07/13 10:52:54;;;;;;;9.00;5.75;;;;;;;40.40;21.46;99984.91;5106951;28;20031;-19
2023/07/13 10:55:32;;;;;;;7.85;5.22;;;;;;;40.65;21.50;99997.66;5103752;28;20713;-19
2023/07/13 10:58:13;;;;;;;6.95;5.18;;;;;;;40.95;22.21;99999.53;5103153;28;20052;-20
2023/07/13 11:00:57;;;;;;;8.18;5.88;;;;;;;40.82;21.35;99995.75;5106302;28;20097;-19
2023/07/13 11:03:27;;;;;;;9.25;4.88;;;;;;;40.80;19.71;99989.81;5103719;28;20057;-20
2023/07/13 11:06:24;;;;;;;8.38;5.28;;;;;;;40.83;19.62;99994.56;5105825;28;20470;-19
2023/07/13 11:08:58;;;;;;;7.38;5.35;;;;;;;40.55;20.68;99979.84;5095304;28;20649;-20
2023/07/13 11:11:24;;;;;;;9.10;5.43;;;;;;;40.79;20.67;99993.84;5103620;28;20450;-19
2023/07/13 11:13:49;;;;;;;7.77;5.30;;;;;;;40.85;21.59;99987.31;5104672;28;20550;-20
2023/07/13 11:16:18;;;;;;;8.77;4.93;;;;;;;40.76;20.10;99978.69;5106324;28;20064;-20
2023/07/13 11:19:03;;;;;;;10.10;4.75;;;;;;;40.96;19.04;99978.72;5103286;28;20031;-19
2023/07/13 11:21:30;;;;;;;6.50;4.78;;;;;;;41.18;21.07;99976.31;5105994;28;20031;-21
2023/07/13 11:24:01;;;;;;;10.85;4.95;;;;;;;40.87;19.91;99972.91;5106355;28;20032;-19